Time;durP1;ratioP1;P1;durP2;ratioP2;P2;SDS_P1;SDS_P2;PMS_P1;PMS_P2;Temp;Humidity;BMP_temperature;BMP_pressure;BME280_temperature;BME280_humidity;BME280_pressure;Samples;Min_cycle;Max_cycle;Signal;HPM_P1;HPM_P2
2023/07/15 00:02:03;;;;;;;12.32;4.63;;;;;;;;;;5012509;28;20445;-65
2023/07/15 00:05:46;;;;;;;13.40;4.00;;;;;;;;;;5010659;28;20133;-67
2023/07/15 00:09:29;;;;;;;17.83;4.55;;;;;;;;;;5013180;28;20048;-66
2023/07/15 00:13:07;;;;;;;21.10;4.43;;;;;;;;;;5018624;28;20456;-65
2023/07/15 00:16:49;;;;;;;18.38;3.95;;;;;;;;;;5021289;28;20058;-64
2023/07/15 00:20:28;;;;;;;17.52;3.83;;;;;;;;;;5021333;28;20046;-65
2023/07/15 00:24:08;;;;;;;20.08;3.90;;;;;;;;;;5015479;28;20585;-64
2023/07/15 00:27:48;;;;;;;12.88;4.00;;;;;;;;;;5018648;28;20054;-66
2023/07/15 00:31:31;;;;;;;12.10;4.32;;;;;;;;;;5016785;28;20045;-65
2023/07/15 00:35:11;;;;;;;20.58;4.22;;;;;;;;;;5014610;28;20509;-65
2023/07/15 00:38:52;;;;;;;12.95;3.95;;;;;;;;;;5022952;28;20048;-66
2023/07/15 00:42:35;;;;;;;21.08;4.18;;;;;;;;;;5019964;28;20120;-68
2023/07/15 00:45:35;;;;;;;12.52;3.75;;;;;;;;;;5018826;28;20046;-65
2023/07/15 00:49:14;;;;;;;17.90;4.07;;;;;;;;;;5024060;28;20042;-69
2023/07/15 00:52:54;;;;;;;17.27;4.40;;;;;;;;;;5027319;28;20061;-65
2023/07/15 00:56:35;;;;;;;21.65;4.20;;;;;;;;;;4998003;28;20097;-66
2023/07/15 01:00:15;;;;;;;21.83;4.75;;;;;;;;;;4996917;28;20343;-65
2023/07/15 01:03:56;;;;;;;16.25;3.88;;;;;;;;;;5001869;28;20434;-69
2023/07/15 01:07:36;;;;;;;16.55;4.40;;;;;;;;;;4999920;28;20263;-64
2023/07/15 01:11:16;;;;;;;18.02;4.50;;;;;;;;;;4993414;28;20251;-64
2023/07/15 01:14:57;;;;;;;11.68;4.28;;;;;;;;;;5001177;28;20212;-65
2023/07/15 01:18:37;;;;;;;18.33;5.28;;;;;;;;;;4997932;28;20050;-64
2023/07/15 01:22:17;;;;;;;13.13;4.35;;;;;;;;;;4998443;28;20148;-64
2023/07/15 01:25:57;;;;;;;16.35;4.47;;;;;;;;;;5001131;28;20395;-65
2023/07/15 01:29:38;;;;;;;15.95;4.38;;;;;;;;;;5001774;28;20046;-65
2023/07/15 01:33:18;;;;;;;16.55;5.32;;;;;;;;;;4998652;28;20081;-65
2023/07/15 01:36:59;;;;;;;15.95;6.25;;;;;;;;;;4993785;28;20525;-64
2023/07/15 01:40:39;;;;;;;16.77;4.72;;;;;;;;;;4992972;28;20049;-66
2023/07/15 01:44:19;;;;;;;15.75;4.72;;;;;;;;;;4997508;28;20444;-65
2023/07/15 01:47:59;;;;;;;19.48;4.53;;;;;;;;;;4998829;28;20567;-64
2023/07/15 01:51:41;;;;;;;11.35;3.90;;;;;;;;;;5002430;28;20053;-65
2023/07/15 01:55:21;;;;;;;17.63;4.40;;;;;;;;;;5004588;28;20055;-65
2023/07/15 01:59:02;;;;;;;22.27;5.53;;;;;;;;;;5018208;28;20053;-66
2023/07/15 02:02:42;;;;;;;17.45;4.47;;;;;;;;;;5019735;28;20052;-64
2023/07/15 02:06:22;;;;;;;16.88;4.22;;;;;;;;;;5022330;28;20053;-66
2023/07/15 02:10:03;;;;;;;17.52;4.38;;;;;;;;;;5016437;28;20124;-64
2023/07/15 02:13:43;;;;;;;16.77;5.13;;;;;;;;;;5019075;28;20064;-64
2023/07/15 02:17:23;;;;;;;13.02;4.80;;;;;;;;;;5013622;28;20558;-66
2023/07/15 02:21:04;;;;;;;20.88;4.45;;;;;;;;;;5018730;28;20482;-65
2023/07/15 02:24:44;;;;;;;17.45;5.25;;;;;;;;;;5015548;28;20069;-64
2023/07/15 02:28:26;;;;;;;15.18;4.68;;;;;;;;;;5014465;28;20053;-65
2023/07/15 02:32:04;;;;;;;15.50;5.18;;;;;;;;;;5017255;28;20060;-64
2023/07/15 02:35:45;;;;;;;19.85;4.70;;;;;;;;;;5015115;28;20050;-66
2023/07/15 02:39:26;;;;;;;18.45;4.30;;;;;;;;;;5019099;28;20575;-65
2023/07/15 02:43:06;;;;;;;18.08;4.18;;;;;;;;;;5014910;28;20129;-65
2023/07/15 02:46:47;;;;;;;14.60;4.30;;;;;;;;;;5012261;28;20046;-66
2023/07/15 02:50:27;;;;;;;18.85;4.20;;;;;;;;;;5021549;28;20131;-65
2023/07/15 02:54:07;;;;;;;16.33;4.22;;;;;;;;;;5020226;28;20434;-64
2023/07/15 02:57:47;;;;;;;13.98;4.60;;;;;;;;;;5018041;28;20045;-66
2023/07/15 03:00:50;;;;;;;16.65;4.50;;;;;;;;;;5011923;28;20490;-64
2023/07/15 03:03:16;;;;;;;16.50;4.28;;;;;;;;;;5017056;28;20054;-65
2023/07/15 03:05:50;;;;;;;11.98;4.00;;;;;;;;;;5013167;28;20057;-65
2023/07/15 03:08:17;;;;;;;14.88;4.55;;;;;;;;;;4988689;28;20044;-63
2023/07/15 03:10:44;;;;;;;12.63;4.40;;;;;;;;;;5017783;28;20050;-64
2023/07/15 03:13:10;;;;;;;14.98;4.20;;;;;;;;;;5021022;28;20508;-65
2023/07/15 03:15:36;;;;;;;17.15;4.47;;;;;;;;;;5019477;28;20041;-64
2023/07/15 03:18:05;;;;;;;21.50;4.13;;;;;;;;;;5019189;28;20049;-68
2023/07/15 03:20:31;;;;;;;16.45;4.13;;;;;;;;;;5020859;28;20057;-65
2023/07/15 03:22:57;;;;;;;17.52;4.28;;;;;;;;;;5018670;28;20480;-65
2023/07/15 03:25:24;;;;;;;12.77;3.80;;;;;;;;;;5020176;28;20136;-65
2023/07/15 03:27:51;;;;;;;13.13;3.80;;;;;;;;;;5013795;28;20045;-68
2023/07/15 03:30:18;;;;;;;14.63;4.53;;;;;;;;;;5017854;28;20468;-64
2023/07/15 03:32:45;;;;;;;15.38;4.32;;;;;;;;;;5022151;28;20160;-66
2023/07/15 03:35:14;;;;;;;16.65;4.78;;;;;;;;;;5017277;28;20100;-67
2023/07/15 03:37:41;;;;;;;12.05;4.15;;;;;;;;;;5020250;28;20060;-65
2023/07/15 03:40:08;;;;;;;10.82;3.97;;;;;;;;;;5022666;28;20141;-67
2023/07/15 03:42:35;;;;;;;11.20;3.67;;;;;;;;;;5013442;28;20081;-65
2023/07/15 03:45:01;;;;;;;13.48;4.15;;;;;;;;;;5019530;28;20419;-65
2023/07/15 03:47:27;;;;;;;17.73;4.25;;;;;;;;;;5012035;28;20049;-64
2023/07/15 03:49:53;;;;;;;12.07;3.65;;;;;;;;;;5020693;28;20045;-65
2023/07/15 03:52:19;;;;;;;13.15;3.60;;;;;;;;;;5015480;28;20460;-65
2023/07/15 03:54:45;;;;;;;15.10;4.20;;;;;;;;;;5020043;28;20045;-66
2023/07/15 03:57:11;;;;;;;14.38;3.83;;;;;;;;;;5009911;28;20103;-67
2023/07/15 03:59:37;;;;;;;13.98;4.03;;;;;;;;;;5013636;28;20041;-66
2023/07/15 04:02:45;;;;;;;13.63;4.10;;;;;;;;;;5012181;28;20057;-65
2023/07/15 04:06:24;;;;;;;13.65;4.25;;;;;;;;;;5008390;28;20076;-65
2023/07/15 04:10:04;;;;;;;19.27;4.25;;;;;;;;;;5017133;28;20434;-64
2023/07/15 04:13:44;;;;;;;16.70;4.00;;;;;;;;;;5012914;28;20124;-65
2023/07/15 04:17:25;;;;;;;17.77;4.13;;;;;;;;;;5011281;28;20128;-69
2023/07/15 04:21:05;;;;;;;17.35;4.05;;;;;;;;;;5016609;28;20482;-67
2023/07/15 04:24:45;;;;;;;11.57;4.00;;;;;;;;;;5012218;28;20096;-68
2023/07/15 04:28:25;;;;;;;15.70;4.22;;;;;;;;;;5018175;28;20064;-62
2023/07/15 04:31:26;;;;;;;14.88;4.20;;;;;;;;;;5017659;28;20042;-59
2023/07/15 04:34:32;;;;;;;13.52;3.97;;;;;;;;;;4997810;28;20046;-60
2023/07/15 04:38:12;;;;;;;14.15;4.03;;;;;;;;;;5016811;28;20053;-61
2023/07/15 04:41:52;;;;;;;13.60;3.92;;;;;;;;;;5014578;28;20065;-63
2023/07/15 04:45:33;;;;;;;19.80;5.13;;;;;;;;;;5009817;28;20556;-67
2023/07/15 04:49:13;;;;;;;12.93;4.38;;;;;;;;;;5024043;28;20049;-65
2023/07/15 04:52:30;;;;;;;16.10;5.00;;;;;;;;;;5016177;28;20085;-67
2023/07/15 04:54:56;;;;;;;12.80;4.57;;;;;;;;;;5013289;28;20057;-62
2023/07/15 04:57:22;;;;;;;13.30;5.15;;;;;;;;;;5021165;28;20061;-61
2023/07/15 04:59:49;;;;;;;16.83;5.85;;;;;;;;;;5025859;28;20096;-60
2023/07/15 05:02:16;;;;;;;21.58;5.90;;;;;;;;;;5023915;28;20230;-63
2023/07/15 05:04:42;;;;;;;14.70;5.82;;;;;;;;;;5018659;28;20054;-61
2023/07/15 05:07:08;;;;;;;15.48;5.68;;;;;;;;;;5014386;28;20056;-62
2023/07/15 05:09:34;;;;;;;17.35;5.78;;;;;;;;;;5021909;28;20069;-64
2023/07/15 05:12:00;;;;;;;17.35;6.55;;;;;;;;;;5025026;28;20050;-62
2023/07/15 05:15:06;;;;;;;16.23;5.85;;;;;;;;;;5023882;28;20513;-63
2023/07/15 05:18:47;;;;;;;17.73;6.00;;;;;;;;;;5024860;28;20049;-63
2023/07/15 05:22:27;;;;;;;17.08;5.65;;;;;;;;;;5019325;28;20497;-62
2023/07/15 05:26:07;;;;;;;18.23;5.82;;;;;;;;;;5016780;28;20045;-63
2023/07/15 05:29:47;;;;;;;20.05;5.45;;;;;;;;;;5014066;28;20057;-62
2023/07/15 05:33:27;;;;;;;16.13;5.47;;;;;;;;;;5020099;28;20070;-64
2023/07/15 05:37:08;;;;;;;18.17;5.68;;;;;;;;;;5019801;28;20050;-64
2023/07/15 05:40:48;;;;;;;16.13;5.95;;;;;;;;;;5020330;28;20405;-68
2023/07/15 05:44:29;;;;;;;21.85;8.48;;;;;;;;;;5018229;28;20409;-73
2023/07/15 05:48:09;;;;;;;18.42;6.90;;;;;;;;;;5016717;28;20134;-62
2023/07/15 05:51:49;;;;;;;22.02;7.65;;;;;;;;;;5022012;28;20094;-62
2023/07/15 05:55:30;;;;;;;18.05;6.90;;;;;;;;;;5019594;28;20190;-63
2023/07/15 05:59:10;;;;;;;15.27;6.97;;;;;;;;;;5019567;28;20111;-63
2023/07/15 06:02:51;;;;;;;20.02;7.07;;;;;;;;;;5017816;28;20117;-66
2023/07/15 06:06:31;;;;;;;26.00;6.18;;;;;;;;;;5017115;28;20076;-64
2023/07/15 06:09:31;;;;;;;18.48;5.25;;;;;;;;;;5017082;28;20490;-63
2023/07/15 06:12:37;;;;;;;18.92;5.85;;;;;;;;;;5020061;28;20592;-62
2023/07/15 06:16:18;;;;;;;21.67;5.88;;;;;;;;;;5011555;28;20041;-66
2023/07/15 06:19:58;;;;;;;15.63;5.22;;;;;;;;;;5021820;28;20528;-64
2023/07/15 06:23:16;;;;;;;17.33;5.53;;;;;;;;;;5026950;28;20045;-64
2023/07/15 06:26:22;;;;;;;22.20;5.63;;;;;;;;;;5027551;28;20087;-64
2023/07/15 06:29:56;;;;;;;13.98;5.60;;;;;;;;;;5017325;28;20045;-64
2023/07/15 06:33:16;;;;;;;16.23;5.50;;;;;;;;;;5015250;28;20080;-64
